Time;durP1;ratioP1;P1;durP2;ratioP2;P2;SDS_P1;SDS_P2;PMS_P1;PMS_P2;Temp;Humidity;BMP_temperature;BMP_pressure;BME280_temperature;BME280_humidity;BME280_pressure;Samples;Min_cycle;Max_cycle;Signal;HPM_P1;HPM_P2
2023/12/28 09:59:05;;;;;;;19.80;10.30;;;;;;;6.07;100.00;101741.52;105369;1269;600080;-76
2023/12/28 10:01:35;;;;;;;21.90;11.50;;;;;;;6.07;100.00;101735.80;106668;1252;58990;-84
2023/12/28 10:04:06;;;;;;;22.20;12.00;;;;;;;6.28;100.00;101739.67;106723;1251;57466;-80
2023/12/28 10:06:35;;;;;;;26.90;12.90;;;;;;;6.43;100.00;101739.61;106713;1254;71611;-78
2023/12/28 10:09:07;;;;;;;27.70;12.70;;;;;;;6.34;100.00;101741.31;106438;1251;72644;-81
2023/12/28 10:11:38;;;;;;;21.80;11.60;;;;;;;6.35;100.00;101740.77;106413;1259;351171;-78
2023/12/28 10:14:07;;;;;;;17.60;11.90;;;;;;;6.56;100.00;101740.66;106691;1252;73094;-80
2023/12/28 10:16:41;;;;;;;16.50;9.90;;;;;;;6.53;100.00;101734.89;106707;1256;59087;-78
2023/12/28 10:19:10;;;;;;;17.40;10.00;;;;;;;6.55;100.00;101734.48;106707;1251;61794;-76
2023/12/28 10:21:40;;;;;;;17.80;10.10;;;;;;;6.47;100.00;101734.94;106844;1247;70958;-79
2023/12/28 10:24:11;;;;;;;23.60;9.80;;;;;;;6.55;100.00;101734.30;107144;1260;72569;-78
2023/12/28 10:26:41;;;;;;;17.40;9.90;;;;;;;6.57;100.00;101730.95;107569;1248;70276;-79
2023/12/28 10:29:10;;;;;;;17.30;10.80;;;;;;;6.61;100.00;101729.40;107777;1249;62594;-80
2023/12/28 10:31:43;;;;;;;23.10;11.10;;;;;;;6.47;100.00;101724.39;107440;1249;60832;-83
2023/12/28 10:34:13;;;;;;;16.90;10.00;;;;;;;6.68;100.00;101723.05;106736;1249;61551;-80
2023/12/28 10:36:43;;;;;;;17.50;10.20;;;;;;;6.90;100.00;101723.37;106589;1252;73219;-72
2023/12/28 10:39:17;;;;;;;18.40;10.80;;;;;;;6.94;100.00;101724.93;106687;1248;71127;-77
2023/12/28 10:41:49;;;;;;;18.50;10.20;;;;;;;7.00;100.00;101713.26;106829;1256;72107;-74
2023/12/28 10:44:23;;;;;;;26.60;11.70;;;;;;;7.04;100.00;101702.20;106427;1255;63591;-73
2023/12/28 10:46:56;;;;;;;20.70;10.60;;;;;;;7.20;100.00;101706.37;106538;1249;60333;-73
2023/12/28 10:49:25;;;;;;;16.80;9.30;;;;;;;7.32;100.00;101695.27;106490;1251;60582;-74
2023/12/28 10:51:55;;;;;;;16.60;9.50;;;;;;;7.52;100.00;101689.23;106761;1252;62605;-74
2023/12/28 10:54:33;;;;;;;15.60;10.30;;;;;;;7.73;100.00;101687.55;106646;1251;72162;-78
2023/12/28 10:57:33;;;;;;;22.80;11.90;;;;;;;7.85;100.00;101686.67;106709;1260;70501;-73
2023/12/28 11:00:11;;;;;;;21.40;11.10;;;;;;;8.02;100.00;101682.27;106630;1251;63417;-74
2023/12/28 11:02:51;;;;;;;19.20;9.60;;;;;;;8.19;100.00;101679.20;106576;1251;59154;-79
2023/12/28 11:05:22;;;;;;;22.80;10.60;;;;;;;8.38;100.00;101669.31;106649;1247;60502;-74
2023/12/28 11:07:56;;;;;;;18.50;10.30;;;;;;;8.61;100.00;101661.44;106681;1255;71452;-74
2023/12/28 11:10:25;;;;;;;;;;;;;;;8.78;100.00;101657.27;106406;1248;72320;-73
2023/12/28 11:12:56;;;;;;;17.50;9.00;;;;;;;8.90;100.00;101656.89;106584;1250;70234;-77
2023/12/28 11:15:26;;;;;;;15.70;9.40;;;;;;;9.35;100.00;101647.42;106773;1253;75355;-89
2023/12/28 11:17:55;;;;;;;22.90;10.20;;;;;;;9.26;100.00;101636.45;106903;1247;57513;-74
2023/12/28 11:20:25;;;;;;;17.30;10.30;;;;;;;9.70;100.00;101626.80;106626;1259;60466;-76
2023/12/28 11:22:56;;;;;;;20.20;11.20;;;;;;;9.71;100.00;101620.48;106629;1254;62315;-76
2023/12/28 11:25:34;;;;;;;18.90;11.20;;;;;;;9.59;100.00;101608.91;106508;1249;62847;-76
2023/12/28 11:28:14;;;;;;;34.00;12.80;;;;;;;9.86;100.00;101604.33;106640;1249;59886;-75
2023/12/28 11:30:43;;;;;;;18.90;11.80;;;;;;;9.81;100.00;101601.33;106798;1251;63262;-76
2023/12/28 11:33:12;;;;;;;24.60;13.50;;;;;;;10.09;100.00;101597.32;106517;1260;59107;-72
2023/12/28 11:35:41;;;;;;;24.60;11.80;;;;;;;10.41;100.00;101588.58;106563;1260;61227;-76
2023/12/28 11:38:12;;;;;;;20.10;12.70;;;;;;;10.80;100.00;101586.78;106813;1250;61859;-76
2023/12/28 11:40:47;;;;;;;23.10;12.20;;;;;;;10.44;100.00;101581.77;107918;1250;71997;-78
2023/12/28 11:43:21;;;;;;;25.00;13.70;;;;;;;10.58;100.00;101583.91;106592;1249;60390;-78
2023/12/28 11:45:55;;;;;;;29.40;13.90;;;;;;;11.02;100.00;101582.02;106870;1255;73977;-76
2023/12/28 11:48:28;;;;;;;22.80;13.40;;;;;;;11.10;100.00;101580.46;106722;1249;57376;-74
2023/12/28 11:51:00;;;;;;;32.10;14.70;;;;;;;11.31;100.00;101573.92;106699;1247;59112;-75
2023/12/28 11:53:29;;;;;;;28.90;13.00;;;;;;;11.34;100.00;101569.91;106690;1252;61181;-75
2023/12/28 11:56:06;;;;;;;23.20;12.20;;;;;;;11.35;100.00;101569.83;106762;1249;61945;-76
2023/12/28 11:58:36;;;;;;;21.60;12.90;;;;;;;11.22;100.00;101565.77;106573;1254;59794;-78
2023/12/28 12:01:05;;;;;;;26.10;12.20;;;;;;;11.51;100.00;101561.20;106672;1258;62326;-77
2023/12/28 12:03:35;;;;;;;20.70;11.90;;;;;;;11.59;100.00;101554.77;106616;1251;60613;-79
2023/12/28 12:06:04;;;;;;;21.30;12.70;;;;;;;11.56;100.00;101552.47;106750;1248;60812;-79
2023/12/28 12:08:33;;;;;;;25.50;13.40;;;;;;;11.40;100.00;101549.34;107036;1245;64779;-78
2023/12/28 12:11:05;;;;;;;18.50;11.60;;;;;;;11.85;100.00;101544.02;107022;1255;62532;-82
2023/12/28 12:13:35;;;;;;;23.10;11.20;;;;;;;12.02;100.00;101537.85;107080;1256;69430;-77
2023/12/28 12:16:05;;;;;;;26.80;12.20;;;;;;;12.06;100.00;101541.29;107250;1246;73725;-76
2023/12/28 12:18:35;;;;;;;23.50;11.90;;;;;;;12.56;100.00;101532.53;106900;1245;61435;-76
2023/12/28 12:21:06;;;;;;;17.50;11.60;;;;;;;12.78;100.00;101531.56;106890;1247;57427;-76
2023/12/28 12:23:35;;;;;;;20.30;11.70;;;;;;;12.74;100.00;101533.59;106853;1244;70716;-76
2023/12/28 12:26:07;;;;;;;23.00;12.20;;;;;;;12.85;100.00;101522.38;106850;1256;62217;-80
2023/12/28 12:28:37;;;;;;;27.70;11.60;;;;;;;13.11;100.00;101518.98;107060;1245;70645;-79
2023/12/28 12:31:08;;;;;;;20.10;11.20;;;;;;;13.10;99.97;101519.70;107122;1247;63382;-78
2023/12/28 12:33:38;;;;;;;20.10;12.00;;;;;;;13.04;99.88;101519.65;106948;1245;61155;-78
2023/12/28 12:36:08;;;;;;;22.90;11.90;;;;;;;12.43;100.00;101509.13;107071;1256;57515;-80
2023/12/28 12:38:37;;;;;;;22.40;11.50;;;;;;;12.45;100.00;101501.87;107014;1251;72790;-79
2023/12/28 12:41:07;;;;;;;28.10;12.90;;;;;;;12.77;100.00;101502.09;106895;1245;72367;-79
2023/12/28 12:43:36;;;;;;;23.10;13.00;;;;;;;13.11;100.00;101499.39;106951;1244;71128;-79
2023/12/28 12:46:05;;;;;;;20.60;11.60;;;;;;;13.13;99.88;101490.54;107005;1257;73970;-80
2023/12/28 12:48:35;;;;;;;22.40;11.40;;;;;;;12.87;100.00;101480.23;106964;1246;57904;-76
2023/12/28 12:51:05;;;;;;;22.00;12.30;;;;;;;13.11;100.00;101477.69;107264;1245;60538;-80
2023/12/28 12:53:36;;;;;;;24.90;11.80;;;;;;;13.67;99.03;101481.34;106872;1256;63717;-78
2023/12/28 12:56:07;;;;;;;22.50;12.10;;;;;;;13.62;98.07;101482.64;106966;1257;63030;-77
2023/12/28 12:58:36;;;;;;;22.70;11.90;;;;;;;14.00;99.15;101481.52;106927;1248;59754;-74
2023/12/28 13:01:10;;;;;;;26.30;12.80;;;;;;;14.41;96.78;101481.81;108884;1245;73472;-74
2023/12/28 13:03:40;;;;;;;21.70;12.70;;;;;;;14.30;94.14;101476.55;106830;1248;60541;-74
2023/12/28 13:06:09;;;;;;;20.00;11.50;;;;;;;14.33;96.23;101476.08;106854;1248;58241;-74
2023/12/28 13:08:39;;;;;;;27.60;12.60;;;;;;;14.24;97.25;101473.66;106958;1244;71946;-74
2023/12/28 13:11:08;;;;;;;22.00;12.50;;;;;;;14.02;96.34;101470.73;106991;1246;61215;-71
2023/12/28 13:13:39;;;;;;;24.00;12.90;;;;;;;14.18;95.51;101465.86;107009;1251;59568;-74
2023/12/28 13:16:09;;;;;;;20.70;12.00;;;;;;;14.02;95.93;101463.77;106933;1245;74267;-75
2023/12/28 13:18:38;;;;;;;22.30;11.90;;;;;;;14.01;96.40;101457.72;107162;1254;61401;-83
2023/12/28 13:21:08;;;;;;;29.20;12.70;;;;;;;14.52;96.16;101466.63;107197;1257;61066;-75
2023/12/28 13:23:37;;;;;;;23.40;12.30;;;;;;;14.44;94.38;101467.01;107232;1247;62797;-74
2023/12/28 13:26:07;;;;;;;28.10;13.00;;;;;;;14.36;95.26;101465.02;107571;1247;60835;-81
2023/12/28 13:28:36;;;;;;;29.20;12.50;;;;;;;14.36;96.36;101469.60;107515;1255;60366;-82
2023/12/28 13:31:06;;;;;;;20.60;11.50;;;;;;;14.80;94.92;101472.34;107239;1247;64184;-82
2023/12/28 13:33:35;;;;;;;24.10;12.40;;;;;;;14.91;94.43;101475.86;107103;1248;58902;-80
2023/12/28 13:36:04;;;;;;;18.40;10.70;;;;;;;14.83;93.37;101478.57;107103;1248;60328;-77
2023/12/28 13:38:34;;;;;;;19.60;10.80;;;;;;;14.46;96.40;101477.94;107110;1248;73766;-75
2023/12/28 13:41:04;;;;;;;16.30;10.50;;;;;;;14.08;98.96;101479.90;107051;1248;72279;-78
2023/12/28 13:43:32;;;;;;;14.90;10.30;;;;;;;13.71;99.55;101479.98;107166;1244;70802;-78
2023/12/28 13:46:03;;;;;;;21.30;11.70;;;;;;;12.66;100.00;101477.16;107077;1257;73564;-77
2023/12/28 13:48:33;;;;;;;20.20;11.10;;;;;;;12.17;100.00;101467.60;107104;1249;62766;-78
2023/12/28 13:51:03;;;;;;;20.60;12.20;;;;;;;11.26;100.00;101471.36;107144;1248;61192;-77
2023/12/28 13:53:35;;;;;;;22.50;12.40;;;;;;;10.92;100.00;101475.77;107034;1257;72511;-77
2023/12/28 13:56:05;;;;;;;21.90;11.80;;;;;;;10.32;100.00;101478.69;107119;1248;60567;-78
2023/12/28 13:58:34;;;;;;;25.10;13.00;;;;;;;9.98;100.00;101473.50;107111;1245;69938;-78
2023/12/28 14:01:03;;;;;;;23.00;11.60;;;;;;;9.64;100.00;101467.45;107068;1257;74087;-76
2023/12/28 14:03:33;;;;;;;20.90;12.00;;;;;;;9.42;100.00;101459.84;107050;1251;62199;-80
2023/12/28 14:06:02;;;;;;;18.80;11.80;;;;;;;9.31;100.00;101452.79;107121;1244;58960;-78
2023/12/28 14:08:32;;;;;;;22.50;12.10;;;;;;;9.23;100.00;101449.73;107119;1245;71860;-81
2023/12/28 14:11:01;;;;;;;21.60;12.20;;;;;;;8.90;100.00;101452.59;107114;1248;62540;-77
2023/12/28 14:13:31;;;;;;;20.60;12.10;;;;;;;8.59;100.00;101452.66;107164;1248;59187;-80
2023/12/28 14:16:00;;;;;;;24.40;13.30;;;;;;;8.37;100.00;101446.68;107143;1247;62841;-79
2023/12/28 14:18:29;;;;;;;20.70;12.60;;;;;;;8.13;100.00;101443.21;107153;1247;58805;-77
2023/12/28 14:20:58;;;;;;;23.40;13.00;;;;;;;7.74;100.00;101444.26;107162;1246;57381;-78
2023/12/28 14:23:28;;;;;;;20.00;11.90;;;;;;;7.57;100.00;101445.94;107231;1245;74346;-78
2023/12/28 14:25:58;;;;;;;20.20;12.60;;;;;;;7.38;100.00;101446.69;107150;1247;61541;-77
2023/12/28 14:28:31;;;;;;;22.10;12.20;;;;;;;7.18;100.00;101448.64;107282;1257;69737;-77
2023/12/28 14:31:01;;;;;;;21.10;13.00;;;;;;;6.98;100.00;101446.45;107109;1246;62665;-78
2023/12/28 14:33:31;;;;;;;22.90;12.50;;;;;;;6.78;100.00;101437.83;107167;1246;57445;-80
2023/12/28 14:36:05;;;;;;;19.40;11.70;;;;;;;6.58;100.00;101434.75;107187;1247;60973;-80
2023/12/28 14:38:34;;;;;;;21.20;12.00;;;;;;;6.42;100.00;101434.76;107237;1248;62433;-78
2023/12/28 14:41:03;;;;;;;23.10;12.90;;;;;;;6.26;100.00;101435.45;107201;1245;61037;-78
2023/12/28 14:43:32;;;;;;;24.80;13.10;;;;;;;6.12;100.00;101440.88;107201;1249;59238;-81
2023/12/28 14:46:01;;;;;;;24.00;12.40;;;;;;;5.99;100.00;101436.94;107202;1254;72563;-81
2023/12/28 14:48:31;;;;;;;24.50;13.30;;;;;;;5.87;100.00;101428.61;107225;1247;58833;-80
2023/12/28 14:51:00;;;;;;;27.20;14.60;;;;;;;5.74;100.00;101423.76;107246;1245;60395;-80
2023/12/28 14:53:30;;;;;;;24.20;14.40;;;;;;;5.61;100.00;101418.77;107249;1245;72370;-77
2023/12/28 14:55:59;;;;;;;27.80;15.20;;;;;;;5.51;100.00;101418.30;107319;1246;72296;-78
2023/12/28 14:58:29;;;;;;;29.00;17.00;;;;;;;5.40;100.00;101414.73;107310;1257;69888;-80
2023/12/28 15:00:58;;;;;;;26.60;15.50;;;;;;;5.31;100.00;101410.44;107216;1246;63303;-79
2023/12/28 15:03:27;;;;;;;30.30;16.70;;;;;;;5.21;100.00;101410.67;107264;1248;58843;-80
2023/12/28 15:05:56;;;;;;;32.70;17.90;;;;;;;5.11;100.00;101410.89;107227;1248;60812;-77
2023/12/28 15:08:26;;;;;;;283.70;135.60;;;;;;;5.00;100.00;101410.08;107066;1244;72378;-77
2023/12/28 15:10:55;;;;;;;287.60;135.00;;;;;;;4.85;100.00;101409.97;107188;1248;72577;-78
2023/12/28 15:13:24;;;;;;;117.70;59.50;;;;;;;4.71;100.00;101413.09;107190;1257;60366;-79
2023/12/28 15:15:54;;;;;;;174.60;93.80;;;;;;;4.61;100.00;101409.49;107236;1247;63248;-78
2023/12/28 15:18:24;;;;;;;58.30;31.10;;;;;;;4.51;100.00;101403.98;107278;1245;59445;-76
2023/12/28 15:21:00;;;;;;;68.00;39.30;;;;;;;4.36;100.00;101403.84;107277;1244;60977;-79
2023/12/28 15:23:39;;;;;;;73.50;36.70;;;;;;;4.25;100.00;101410.23;107195;1245;63678;-82
2023/12/28 15:26:08;;;;;;;54.00;27.50;;;;;;;4.18;100.00;101408.41;107192;1249;72171;-78
2023/12/28 15:28:50;;;;;;;240.00;91.50;;;;;;;4.08;100.00;101407.73;107227;1247;71097;-80
2023/12/28 15:31:21;;;;;;;40.20;23.20;;;;;;;3.97;100.00;101406.39;107192;1248;73771;-78
2023/12/28 15:33:51;;;;;;;59.30;29.70;;;;;;;3.86;100.00;101407.63;107178;1251;63447;-78
2023/12/28 15:36:20;;;;;;;46.70;28.00;;;;;;;3.76;100.00;101411.21;107230;1244;58228;-76
2023/12/28 15:38:52;;;;;;;62.80;37.20;;;;;;;3.67;100.00;101405.48;107200;1248;62744;-79
2023/12/28 15:41:20;;;;;;;50.70;27.10;;;;;;;3.61;100.00;101400.87;107064;1245;71459;-79
2023/12/28 15:43:50;;;;;;;31.10;18.80;;;;;;;3.55;100.00;101401.91;107208;1249;70674;-82
2023/12/28 15:46:22;;;;;;;32.40;19.20;;;;;;;3.51;100.00;101397.73;107124;1248;62991;-72
2023/12/28 15:48:51;;;;;;;37.40;20.10;;;;;;;3.46;100.00;101399.98;107062;1247;58727;-75
2023/12/28 15:51:21;;;;;;;49.20;26.70;;;;;;;3.42;100.00;101401.80;107083;1245;59010;-72
2023/12/28 15:53:51;;;;;;;48.80;27.70;;;;;;;3.33;100.00;101402.45;107130;1245;73481;-74
2023/12/28 15:56:20;;;;;;;49.50;28.30;;;;;;;3.32;100.00;101402.66;107138;1245;71727;-74
2023/12/28 15:58:53;;;;;;;52.80;31.60;;;;;;;3.30;100.00;101394.29;107075;1251;60178;-72
2023/12/28 16:01:27;;;;;;;49.40;26.40;;;;;;;3.26;100.00;101390.43;106999;1248;73504;-70
2023/12/28 16:03:56;;;;;;;56.70;38.90;;;;;;;3.22;100.00;101390.02;107119;1244;61779;-71
2023/12/28 16:06:26;;;;;;;44.20;24.90;;;;;;;3.16;100.00;101385.55;107037;1251;60855;-72
2023/12/28 16:08:55;;;;;;;47.00;25.80;;;;;;;3.18;100.00;101383.45;107034;1248;72860;-72
2023/12/28 16:11:24;;;;;;;39.60;21.30;;;;;;;3.16;100.00;101388.15;107022;1246;71581;-72
2023/12/28 16:13:56;;;;;;;42.80;23.40;;;;;;;3.14;100.00;101395.79;106921;1245;59718;-71
2023/12/28 16:16:26;;;;;;;43.30;23.40;;;;;;;3.13;100.00;101400.64;106900;1257;62935;-71
2023/12/28 16:18:57;;;;;;;39.20;22.00;;;;;;;3.11;100.00;101400.17;107214;1251;58152;-74
2023/12/28 16:21:31;;;;;;;38.70;19.70;;;;;;;3.12;100.00;101395.34;106827;1251;60602;-75
2023/12/28 16:24:00;;;;;;;62.10;35.80;;;;;;;3.11;100.00;101395.19;107124;1244;73153;-74
2023/12/28 16:26:29;;;;;;;46.30;23.50;;;;;;;3.10;100.00;101390.39;107073;1244;72161;-72
2023/12/28 16:28:58;;;;;;;48.20;25.80;;;;;;;3.11;100.00;101395.89;107069;1251;70814;-71
2023/12/28 16:31:30;;;;;;;51.30;25.00;;;;;;;3.13;100.00;101394.09;109279;1244;63933;-73
2023/12/28 16:34:02;;;;;;;53.70;26.00;;;;;;;3.15;100.00;101387.17;107010;1247;61920;-72
2023/12/28 16:36:37;;;;;;;50.60;27.60;;;;;;;3.14;100.00;101385.63;107054;1244;58909;-73
2023/12/28 16:39:07;;;;;;;53.50;32.30;;;;;;;3.12;100.00;101385.87;107169;1247;62972;-71
2023/12/28 16:41:39;;;;;;;59.60;34.90;;;;;;;3.09;100.00;101387.16;107089;1257;63288;-72
2023/12/28 16:44:08;;;;;;;49.80;29.70;;;;;;;3.07;100.00;101385.17;107073;1248;59507;-74
2023/12/28 16:46:47;;;;;;;49.20;29.00;;;;;;;3.05;100.00;101385.91;107201;1249;73867;-72
2023/12/28 16:49:17;;;;;;;34.60;20.90;;;;;;;3.02;100.00;101388.09;109428;1243;57186;-71
2023/12/28 16:51:48;;;;;;;38.90;27.20;;;;;;;3.03;100.00;101387.87;109308;1244;60407;-71
2023/12/28 16:54:17;;;;;;;35.40;22.20;;;;;;;3.02;100.00;101388.08;109293;1244;74354;-70
2023/12/28 16:56:49;;;;;;;40.40;22.50;;;;;;;3.03;100.00;101385.45;109375;1244;72512;-70
2023/12/28 16:59:21;;;;;;;40.90;23.60;;;;;;;3.02;100.00;101381.39;109326;1243;60433;-70
2023/12/28 17:01:50;;;;;;;38.50;20.20;;;;;;;2.99;100.00;101381.80;109394;1243;63308;-70
2023/12/28 17:04:19;;;;;;;31.10;17.40;;;;;;;2.97;100.00;101388.40;109405;1244;57735;-70
2023/12/28 17:06:48;;;;;;;33.50;20.10;;;;;;;2.94;100.00;101384.01;109429;1244;57144;-71
2023/12/28 17:09:17;;;;;;;36.20;21.20;;;;;;;2.91;100.00;101380.66;109336;1245;62869;-70
2023/12/28 17:11:55;;;;;;;42.90;26.10;;;;;;;2.90;100.00;101380.52;109440;1244;72127;-70
2023/12/28 17:14:24;;;;;;;36.50;22.70;;;;;;;2.86;100.00;101386.50;109307;1244;60580;-70
2023/12/28 17:16:54;;;;;;;44.10;25.70;;;;;;;2.81;100.00;101388.01;109390;1244;63715;-72
2023/12/28 17:19:23;;;;;;;44.10;26.80;;;;;;;2.78;100.00;101388.77;109417;1244;61048;-72
2023/12/28 17:22:03;;;;;;;45.00;28.40;;;;;;;2.76;100.00;101382.11;109335;1244;61404;-71
2023/12/28 17:24:45;;;;;;;43.50;26.40;;;;;;;2.73;100.00;101381.88;109278;1243;73303;-72
2023/12/28 17:27:22;;;;;;;48.80;26.30;;;;;;;2.72;100.00;101386.20;109268;1248;61136;-72
2023/12/28 17:29:57;;;;;;;38.70;23.20;;;;;;;2.72;100.00;101389.29;109330;1244;59029;-70
2023/12/28 17:32:26;;;;;;;38.60;21.20;;;;;;;2.74;100.00;101388.56;109258;1244;73854;-71
2023/12/28 17:34:55;;;;;;;36.50;20.20;;;;;;;2.72;100.00;101390.84;109316;1244;61915;-71
2023/12/28 17:37:24;;;;;;;26.30;15.90;;;;;;;2.71;100.00;101390.70;109355;1244;57701;-69
2023/12/28 17:39:54;;;;;;;27.50;16.30;;;;;;;2.70;100.00;101389.70;109350;1244;64774;-71
2023/12/28 17:42:29;;;;;;;25.30;16.00;;;;;;;2.66;100.00;101387.58;109217;1245;70778;-73
2023/12/28 17:45:00;;;;;;;28.60;17.50;;;;;;;2.64;100.00;101388.65;109328;1244;72324;-71
2023/12/28 17:48:07;;;;;;;40.80;22.30;;;;;;;2.60;100.00;101390.52;109371;1244;73966;-71
2023/12/28 17:50:38;;;;;;;42.00;22.20;;;;;;;2.55;100.00;101393.76;109338;1244;62866;-72
2023/12/28 17:53:08;;;;;;;33.10;20.10;;;;;;;2.49;100.00;101395.80;109319;1244;61471;-72
2023/12/28 17:55:37;;;;;;;38.50;24.10;;;;;;;2.43;100.00;101398.55;109350;1247;63460;-71
2023/12/28 17:58:06;;;;;;;46.50;27.60;;;;;;;2.34;100.00;101401.71;109361;1245;61537;-70
2023/12/28 18:00:37;;;;;;;51.70;28.60;;;;;;;2.29;100.00;101397.39;109397;1243;59503;-73
2023/12/28 18:03:06;;;;;;;41.50;25.80;;;;;;;2.26;100.00;101391.80;109292;1248;63293;-72
2023/12/28 18:05:35;;;;;;;43.80;23.60;;;;;;;2.21;100.00;101389.18;109359;1245;57680;-72
2023/12/28 18:08:08;;;;;;;53.40;28.90;;;;;;;2.20;100.00;101388.15;109345;1244;57704;-71
2023/12/28 18:10:47;;;;;;;89.20;43.70;;;;;;;2.18;100.00;101388.73;109280;1247;62830;-71
2023/12/28 18:13:16;;;;;;;55.30;30.90;;;;;;;2.11;100.00;101383.27;109404;1244;60963;-70
2023/12/28 18:15:45;;;;;;;38.70;21.70;;;;;;;2.08;100.00;101378.70;109343;1244;59838;-71
2023/12/28 18:18:14;;;;;;;44.80;24.60;;;;;;;2.07;100.00;101373.90;109398;1244;71186;-71
2023/12/28 18:20:44;;;;;;;49.20;27.20;;;;;;;2.06;100.00;101374.79;109347;1244;57144;-72
2023/12/28 18:23:13;;;;;;;47.50;25.90;;;;;;;1.98;100.00;101377.07;109425;1245;57728;-70
2023/12/28 18:25:42;;;;;;;41.10;23.10;;;;;;;1.89;100.00;101380.93;109364;1244;71594;-70
2023/12/28 18:28:11;;;;;;;37.10;22.70;;;;;;;1.85;100.00;101376.21;109440;1245;69902;-73
2023/12/28 18:30:40;;;;;;;43.20;25.50;;;;;;;1.81;100.00;101371.66;109294;1244;60836;-73
2023/12/28 18:33:09;;;;;;;41.90;24.00;;;;;;;1.80;100.00;101367.73;109345;1243;73557;-76
2023/12/28 18:35:39;;;;;;;38.60;22.30;;;;;;;1.75;100.00;101363.23;109391;1245;62462;-72
2023/12/28 18:38:07;;;;;;;36.30;20.50;;;;;;;1.75;100.00;101362.20;109434;1244;60695;-73
2023/12/28 18:40:36;;;;;;;37.70;22.20;;;;;;;1.78;100.00;101358.52;109392;1244;63382;-72
2023/12/28 18:43:08;;;;;;;31.70;19.40;;;;;;;1.75;100.00;101353.43;109362;1245;61803;-71
2023/12/28 18:45:37;;;;;;;28.90;18.30;;;;;;;1.74;100.00;101354.50;109360;1244;69710;-73
2023/12/28 18:48:11;;;;;;;34.00;18.70;;;;;;;1.72;100.00;101355.59;109413;1244;74229;-73
2023/12/28 18:50:43;;;;;;;30.70;18.30;;;;;;;1.67;100.00;101351.77;109411;1243;62484;-70
2023/12/28 18:53:14;;;;;;;32.50;18.50;;;;;;;1.63;100.00;101347.73;109251;1244;61396;-73
2023/12/28 18:55:43;;;;;;;28.40;17.80;;;;;;;1.62;100.00;101342.63;109377;1243;73962;-72
2023/12/28 18:58:12;;;;;;;29.30;17.00;;;;;;;1.61;100.00;101342.98;109393;1244;71927;-72
2023/12/28 19:00:41;;;;;;;29.30;16.70;;;;;;;1.57;100.00;101342.04;109372;1244;70887;-73
2023/12/28 19:03:09;;;;;;;28.00;16.50;;;;;;;1.55;100.00;101341.23;109360;1244;74462;-75
2023/12/28 19:05:38;;;;;;;29.20;16.60;;;;;;;1.55;100.00;101333.02;109341;1245;62044;-74
2023/12/28 19:08:08;;;;;;;29.70;18.10;;;;;;;1.54;100.00;101331.14;109233;1245;61937;-70
2023/12/28 19:10:37;;;;;;;31.60;18.00;;;;;;;1.52;100.00;101329.64;109168;1247;72429;-73
2023/12/28 19:13:06;;;;;;;31.00;17.90;;;;;;;1.48;100.00;101322.87;109244;1245;69498;-73
2023/12/28 19:15:35;;;;;;;30.60;18.30;;;;;;;1.50;100.00;101319.58;109250;1244;68531;-73
2023/12/28 19:18:04;;;;;;;26.80;16.60;;;;;;;1.46;100.00;101323.44;109285;1244;73338;-72
2023/12/28 19:20:34;;;;;;;29.60;17.50;;;;;;;1.43;100.00;101326.61;109332;1244;60536;-83
2023/12/28 19:23:03;;;;;;;32.30;18.40;;;;;;;1.45;100.00;101331.02;109272;1244;60928;-70
2023/12/28 19:25:31;;;;;;;35.50;21.20;;;;;;;1.44;100.00;101336.71;109263;1243;73971;-70
2023/12/28 19:28:00;;;;;;;32.80;19.10;;;;;;;1.50;100.00;101339.14;109155;1244;70057;-71
2023/12/28 19:30:30;;;;;;;33.20;19.30;;;;;;;1.55;100.00;101337.48;109220;1244;70522;-72
2023/12/28 19:32:59;;;;;;;28.30;18.00;;;;;;;1.56;100.00;101332.46;109319;1244;73715;-73
2023/12/28 19:35:28;;;;;;;34.50;18.50;;;;;;;1.57;100.00;101333.45;109277;1245;57760;-72
2023/12/28 19:37:57;;;;;;;30.10;18.10;;;;;;;1.56;100.00;101334.86;109400;1244;59800;-71
2023/12/28 19:40:27;;;;;;;34.30;19.40;;;;;;;1.51;100.00;101332.59;109409;1244;72339;-71
2023/12/28 19:42:56;;;;;;;43.80;23.10;;;;;;;1.50;100.00;101329.17;109182;1244;72238;-73
2023/12/28 19:45:24;;;;;;;35.90;19.00;;;;;;;1.49;100.00;101328.70;109384;1244;71096;-71
2023/12/28 19:47:53;;;;;;;35.60;20.20;;;;;;;1.43;100.00;101328.49;109364;1244;72351;-73
2023/12/28 19:50:22;;;;;;;31.60;18.90;;;;;;;1.45;100.00;101327.94;109378;1244;60437;-76
2023/12/28 19:52:51;;;;;;;33.10;20.10;;;;;;;1.41;100.00;101326.48;109467;1243;60644;-71
2023/12/28 19:55:20;;;;;;;35.50;19.80;;;;;;;1.41;100.00;101318.08;109388;1244;70430;-73
2023/12/28 19:57:49;;;;;;;35.40;20.40;;;;;;;1.41;100.00;101312.56;109372;1245;70260;-71
2023/12/28 20:00:20;;;;;;;37.90;20.80;;;;;;;1.40;100.00;101308.32;109337;1247;68418;-72
2023/12/28 20:02:48;;;;;;;39.50;22.60;;;;;;;1.36;100.00;101307.39;109339;1244;73685;-74
2023/12/28 20:05:17;;;;;;;42.10;23.50;;;;;;;1.33;100.00;101309.01;109272;1245;64422;-72
2023/12/28 20:07:46;;;;;;;39.70;21.80;;;;;;;1.30;100.00;101312.16;109364;1245;61585;-73
2023/12/28 20:10:15;;;;;;;39.30;23.20;;;;;;;1.30;100.00;101316.64;109408;1244;72068;-75
2023/12/28 20:12:45;;;;;;;38.50;23.30;;;;;;;1.30;100.00;101320.39;109401;1244;72348;-72
2023/12/28 20:15:15;;;;;;;44.10;25.50;;;;;;;1.29;100.00;101317.84;109183;1244;70207;-74
2023/12/28 20:17:44;;;;;;;37.80;23.60;;;;;;;1.25;100.00;101311.08;109370;1245;63696;-72
2023/12/28 20:20:13;;;;;;;39.30;23.00;;;;;;;1.24;100.00;101306.14;109346;1244;59773;-81
2023/12/28 20:22:42;;;;;;;36.70;22.80;;;;;;;1.19;100.00;101303.86;109394;1243;58712;-76
2023/12/28 20:25:11;;;;;;;42.30;23.30;;;;;;;1.15;100.00;101301.55;109386;1246;70905;-72
2023/12/28 20:27:41;;;;;;;41.20;23.30;;;;;;;1.15;100.00;101305.52;109442;1244;69434;-71
2023/12/28 20:30:10;;;;;;;38.10;21.60;;;;;;;1.13;100.00;101306.23;109225;1247;70922;-69
2023/12/28 20:32:40;;;;;;;38.90;22.30;;;;;;;1.10;100.00;101304.25;109373;1244;74360;-70
2023/12/28 20:35:09;;;;;;;47.00;26.90;;;;;;;1.08;100.00;101302.41;109333;1244;59863;-71
2023/12/28 20:37:38;;;;;;;68.90;33.60;;;;;;;1.06;100.00;101297.80;109330;1243;60756;-71
2023/12/28 20:40:08;;;;;;;54.00;29.60;;;;;;;1.07;100.00;101295.89;109182;1245;72930;-72
2023/12/28 20:42:37;;;;;;;55.80;29.30;;;;;;;1.06;100.00;101299.35;109382;1244;70950;-71
2023/12/28 20:45:07;;;;;;;47.60;26.50;;;;;;;1.05;100.00;101305.05;109375;1244;68019;-71
2023/12/28 20:47:36;;;;;;;54.90;27.00;;;;;;;1.05;100.00;101304.35;109200;1245;72287;-72
2023/12/28 20:50:07;;;;;;;52.20;26.60;;;;;;;1.05;100.00;101298.70;109371;1245;60149;-70
2023/12/28 20:52:36;;;;;;;47.60;25.30;;;;;;;1.03;100.00;101293.09;109261;1244;61164;-73
2023/12/28 20:55:05;;;;;;;45.90;24.60;;;;;;;1.00;100.00;101288.19;109391;1244;72170;-72
2023/12/28 20:57:34;;;;;;;40.10;23.80;;;;;;;0.95;100.00;101292.23;109384;1244;69546;-70
2023/12/28 21:00:06;;;;;;;45.50;25.10;;;;;;;0.89;100.00;101289.11;109391;1244;68613;-70
2023/12/28 21:02:35;;;;;;;43.80;24.30;;;;;;;0.80;100.00;101288.81;109310;1244;63727;-73
2023/12/28 21:05:05;;;;;;;39.50;23.60;;;;;;;0.69;100.00;101282.55;109060;1248;59680;-70
2023/12/28 21:07:35;;;;;;;40.90;23.00;;;;;;;0.70;100.00;101288.87;109339;1245;61112;-73
2023/12/28 21:10:05;;;;;;;44.90;23.60;;;;;;;0.66;100.00;101280.73;109358;1244;74626;-70
2023/12/28 21:12:37;;;;;;;52.00;29.80;;;;;;;0.59;100.00;101276.77;109302;1245;73512;-71
2023/12/28 21:15:07;;;;;;;63.70;34.10;;;;;;;0.56;100.00;101269.64;109211;1244;69612;-72